sensor_id;sensor_type;location;lat;lon;timestamp;temperature;humidity
30572;DHT22;17348;50.948;10.696;2023-06-10T00:00:22;18.90;99.90
30572;DHT22;17348;50.948;10.696;2023-06-10T00:03:24;18.90;99.90
30572;DHT22;17348;50.948;10.696;2023-06-10T00:06:27;18.80;99.90
30572;DHT22;17348;50.948;10.696;2023-06-10T00:09:38;18.80;99.90
30572;DHT22;17348;50.948;10.696;2023-06-10T00:12:40;18.80;99.90
30572;DHT22;17348;50.948;10.696;2023-06-10T00:15:43;18.70;99.90
30572;DHT22;17348;50.948;10.696;2023-06-10T00:18:45;18.70;99.90
30572;DHT22;17348;50.948;10.696;2023-06-10T00:21:48;18.70;99.90
30572;DHT22;17348;50.948;10.696;2023-06-10T00:24:53;18.60;99.90
30572;DHT22;17348;50.948;10.696;2023-06-10T00:27:56;18.50;99.90
30572;DHT22;17348;50.948;10.696;2023-06-10T00:30:58;18.50;99.90
30572;DHT22;17348;50.948;10.696;2023-06-10T00:34:00;18.50;99.90
30572;DHT22;17348;50.948;10.696;2023-06-10T00:37:03;18.40;99.90
30572;DHT22;17348;50.948;10.696;2023-06-10T00:40:08;18.30;99.90
30572;DHT22;17348;50.948;10.696;2023-06-10T00:43:10;18.30;99.90
30572;DHT22;17348;50.948;10.696;2023-06-10T00:46:13;18.20;99.90
30572;DHT22;17348;50.948;10.696;2023-06-10T00:49:16;18.20;99.90
30572;DHT22;17348;50.948;10.696;2023-06-10T00:52:19;18.10;99.90
30572;DHT22;17348;50.948;10.696;2023-06-10T00:55:26;18.10;99.90
30572;DHT22;17348;50.948;10.696;2023-06-10T00:58:29;18.10;99.90
30572;DHT22;17348;50.948;10.696;2023-06-10T01:01:32;18.00;99.90
30572;DHT22;17348;50.948;10.696;2023-06-10T01:04:35;17.90;99.90
30572;DHT22;17348;50.948;10.696;2023-06-10T01:07:43;17.80;99.90
30572;DHT22;17348;50.948;10.696;2023-06-10T01:10:51;17.70;99.90
30572;DHT22;17348;50.948;10.696;2023-06-10T01:13:55;17.70;99.90
30572;DHT22;17348;50.948;10.696;2023-06-10T01:16:58;17.60;99.90
30572;DHT22;17348;50.948;10.696;2023-06-10T01:20:01;17.50;99.90
30572;DHT22;17348;50.948;10.696;2023-06-10T01:23:14;17.50;99.90
30572;DHT22;17348;50.948;10.696;2023-06-10T01:26:18;17.40;99.90
30572;DHT22;17348;50.948;10.696;2023-06-10T01:29:26;17.40;99.90
30572;DHT22;17348;50.948;10.696;2023-06-10T01:32:34;17.30;99.90
30572;DHT22;17348;50.948;10.696;2023-06-10T01:35:41;17.30;99.90
30572;DHT22;17348;50.948;10.696;2023-06-10T01:38:47;17.20;99.90
30572;DHT22;17348;50.948;10.696;2023-06-10T01:41:53;17.20;99.90
30572;DHT22;17348;50.948;10.696;2023-06-10T01:44:56;17.10;99.90
30572;DHT22;17348;50.948;10.696;2023-06-10T01:47:58;17.10;99.90
30572;DHT22;17348;50.948;10.696;2023-06-10T01:51:00;17.00;99.90
30572;DHT22;17348;50.948;10.696;2023-06-10T01:54:04;17.00;99.90
30572;DHT22;17348;50.948;10.696;2023-06-10T01:57:07;16.90;99.90
30572;DHT22;17348;50.948;10.696;2023-06-10T02:00:10;16.90;99.90
30572;DHT22;17348;50.948;10.696;2023-06-10T02:03:13;16.90;99.90
30572;DHT22;17348;50.948;10.696;2023-06-10T02:06:16;16.90;99.90
30572;DHT22;17348;50.948;10.696;2023-06-10T02:09:20;16.80;99.90
30572;DHT22;17348;50.948;10.696;2023-06-10T02:12:23;16.70;99.90
30572;DHT22;17348;50.948;10.696;2023-06-10T02:15:26;16.70;99.90
30572;DHT22;17348;50.948;10.696;2023-06-10T02:18:28;16.70;99.90
30572;DHT22;17348;50.948;10.696;2023-06-10T02:21:30;16.60;99.90
30572;DHT22;17348;50.948;10.696;2023-06-10T02:24:35;16.50;99.90
30572;DHT22;17348;50.948;10.696;2023-06-10T02:27:37;16.50;99.90
30572;DHT22;17348;50.948;10.696;2023-06-10T02:30:40;16.40;99.90
30572;DHT22;17348;50.948;10.696;2023-06-10T02:33:42;16.40;99.90
30572;DHT22;17348;50.948;10.696;2023-06-10T02:36:45;16.40;99.90
30572;DHT22;17348;50.948;10.696;2023-06-10T02:39:51;16.30;99.90
30572;DHT22;17348;50.948;10.696;2023-06-10T02:42:53;16.30;99.90
30572;DHT22;17348;50.948;10.696;2023-06-10T02:45:56;16.20;99.90
30572;DHT22;17348;50.948;10.696;2023-06-10T02:48:58;16.20;99.90
30572;DHT22;17348;50.948;10.696;2023-06-10T02:52:00;16.10;99.90
30572;DHT22;17348;50.948;10.696;2023-06-10T02:55:05;16.00;99.90
30572;DHT22;17348;50.948;10.696;2023-06-10T02:58:07;16.00;99.90
30572;DHT22;17348;50.948;10.696;2023-06-10T03:01:09;16.00;99.90
30572;DHT22;17348;50.948;10.696;2023-06-10T03:04:12;15.90;99.90
30572;DHT22;17348;50.948;10.696;2023-06-10T03:07:15;15.90;99.90
30572;DHT22;17348;50.948;10.696;2023-06-10T03:10:21;15.90;99.90
30572;DHT22;17348;50.948;10.696;2023-06-10T03:13:23;15.80;99.90
30572;DHT22;17348;50.948;10.696;2023-06-10T03:16:25;15.70;99.90
30572;DHT22;17348;50.948;10.696;2023-06-10T03:19:31;15.70;99.90
30572;DHT22;17348;50.948;10.696;2023-06-10T03:22:34;15.70;99.90
30572;DHT22;17348;50.948;10.696;2023-06-10T03:25:41;15.70;99.90
30572;DHT22;17348;50.948;10.696;2023-06-10T03:28:43;15.60;99.90
30572;DHT22;17348;50.948;10.696;2023-06-10T03:31:45;15.60;99.90
30572;DHT22;17348;50.948;10.696;2023-06-10T03:34:48;15.60;99.90
30572;DHT22;17348;50.948;10.696;2023-06-10T03:37:50;15.60;99.90
30572;DHT22;17348;50.948;10.696;2023-06-10T03:40:54;15.60;99.90
30572;DHT22;17348;50.948;10.696;2023-06-10T03:43:56;15.70;99.90
30572;DHT22;17348;50.948;10.696;2023-06-10T03:46:58;15.80;99.90
30572;DHT22;17348;50.948;10.696;2023-06-10T03:50:01;15.80;99.90
30572;DHT22;17348;50.948;10.696;2023-06-10T03:53:04;15.90;99.90
30572;DHT22;17348;50.948;10.696;2023-06-10T03:56:08;15.90;99.90
30572;DHT22;17348;50.948;10.696;2023-06-10T03:59:13;15.90;99.90
30572;DHT22;17348;50.948;10.696;2023-06-10T04:02:15;15.90;99.90
30572;DHT22;17348;50.948;10.696;2023-06-10T04:05:19;15.90;99.90
30572;DHT22;17348;50.948;10.696;2023-06-10T04:08:22;16.00;99.90
30572;DHT22;17348;50.948;10.696;2023-06-10T04:11:26;16.00;99.90
30572;DHT22;17348;50.948;10.696;2023-06-10T04:14:29;16.00;99.90
30572;DHT22;17348;50.948;10.696;2023-06-10T04:17:31;16.10;99.90
30572;DHT22;17348;50.948;10.696;2023-06-10T04:20:33;16.10;99.90
30572;DHT22;17348;50.948;10.696;2023-06-10T04:23:36;16.10;99.90
30572;DHT22;17348;50.948;10.696;2023-06-10T04:26:40;16.30;99.90
30572;DHT22;17348;50.948;10.696;2023-06-10T04:29:43;16.40;99.90
30572;DHT22;17348;50.948;10.696;2023-06-10T04:32:45;16.50;99.90
30572;DHT22;17348;50.948;10.696;2023-06-10T04:35:48;16.50;99.90
30572;DHT22;17348;50.948;10.696;2023-06-10T04:38:50;16.60;99.90
30572;DHT22;17348;50.948;10.696;2023-06-10T04:41:54;16.80;99.90
30572;DHT22;17348;50.948;10.696;2023-06-10T04:44:57;16.90;99.90
30572;DHT22;17348;50.948;10.696;2023-06-10T04:47:59;16.90;99.90
30572;DHT22;17348;50.948;10.696;2023-06-10T04:51:02;17.10;99.90
30572;DHT22;17348;50.948;10.696;2023-06-10T04:54:04;17.10;99.90
30572;DHT22;17348;50.948;10.696;2023-06-10T04:57:09;17.20;99.90
30572;DHT22;17348;50.948;10.696;2023-06-10T05:00:13;17.30;99.90
30572;DHT22;17348;50.948;10.696;2023-06-10T05:03:15;17.40;99.90
30572;DHT22;17348;50.948;10.696;2023-06-10T05:06:17;17.50;99.90
30572;DHT22;17348;50.948;10.696;2023-06-10T05:09:20;17.50;99.90
30572;DHT22;17348;50.948;10.696;2023-06-10T05:12:23;17.50;99.90
30572;DHT22;17348;50.948;10.696;2023-06-10T05:15:28;17.50;99.90
30572;DHT22;17348;50.948;10.696;2023-06-10T05:18:31;17.60;99.90
30572;DHT22;17348;50.948;10.696;2023-06-10T05:21:34;17.60;99.90
30572;DHT22;17348;50.948;10.696;2023-06-10T05:24:36;17.70;99.90
30572;DHT22;17348;50.948;10.696;2023-06-10T05:27:40;17.70;99.90
30572;DHT22;17348;50.948;10.696;2023-06-10T05:30:43;17.80;99.90
30572;DHT22;17348;50.948;10.696;2023-06-10T05:33:45;17.80;99.90
30572;DHT22;17348;50.948;10.696;2023-06-10T05:36:48;17.90;99.90
30572;DHT22;17348;50.948;10.696;2023-06-10T05:39:50;17.90;99.90
30572;DHT22;17348;50.948;10.696;2023-06-10T05:42:54;18.00;99.90
30572;DHT22;17348;50.948;10.696;2023-06-10T05:45:56;18.00;99.90
30572;DHT22;17348;50.948;10.696;2023-06-10T05:48:58;18.10;99.90
30572;DHT22;17348;50.948;10.696;2023-06-10T05:52:01;18.20;99.90
30572;DHT22;17348;50.948;10.696;2023-06-10T05:55:03;18.20;99.90
30572;DHT22;17348;50.948;10.696;2023-06-10T05:58:07;18.20;99.90
30572;DHT22;17348;50.948;10.696;2023-06-10T06:01:09;18.40;99.90
30572;DHT22;17348;50.948;10.696;2023-06-10T06:04:12;18.40;99.90
30572;DHT22;17348;50.948;10.696;2023-06-10T06:07:14;18.40;99.90
30572;DHT22;17348;50.948;10.696;2023-06-10T06:10:19;18.40;99.90
30572;DHT22;17348;50.948;10.696;2023-06-10T06:13:23;18.40;99.90
30572;DHT22;17348;50.948;10.696;2023-06-10T06:16:25;18.60;99.90
30572;DHT22;17348;50.948;10.696;2023-06-10T06:19:28;18.60;99.90
30572;DHT22;17348;50.948;10.696;2023-06-10T06:22:30;18.70;99.90
30572;DHT22;17348;50.948;10.696;2023-06-10T06:25:32;18.70;99.90
30572;DHT22;17348;50.948;10.696;2023-06-10T06:28:37;18.70;99.90
30572;DHT22;17348;50.948;10.696;2023-06-10T06:31:40;18.70;99.90
30572;DHT22;17348;50.948;10.696;2023-06-10T06:34:42;18.80;99.90
30572;DHT22;17348;50.948;10.696;2023-06-10T06:37:44;18.90;99.90
30572;DHT22;17348;50.948;10.696;2023-06-10T06:40:47;18.90;99.90
30572;DHT22;17348;50.948;10.696;2023-06-10T06:43:50;19.00;99.90
30572;DHT22;17348;50.948;10.696;2023-06-10T06:46:54;19.00;99.90
30572;DHT22;17348;50.948;10.696;2023-06-10T06:49:57;19.10;99.90
30572;DHT22;17348;50.948;10.696;2023-06-10T06:52:59;19.20;99.90
30572;DHT22;17348;50.948;10.696;2023-06-10T06:56:01;19.30;99.90
30572;DHT22;17348;50.948;10.696;2023-06-10T06:59:08;19.40;99.90
30572;DHT22;17348;50.948;10.696;2023-06-10T07:02:11;19.40;99.90
30572;DHT22;17348;50.948;10.696;2023-06-10T07:05:13;19.50;99.90
30572;DHT22;17348;50.948;10.696;2023-06-10T07:08:15;19.60;99.90
30572;DHT22;17348;50.948;10.696;2023-06-10T07:11:18;19.80;99.90
30572;DHT22;17348;50.948;10.696;2023-06-10T07:14:21;19.90;99.90
30572;DHT22;17348;50.948;10.696;2023-06-10T07:17:26;20.00;99.90
30572;DHT22;17348;50.948;10.696;2023-06-10T07:20:28;20.10;99.90
30572;DHT22;17348;50.948;10.696;2023-06-10T07:23:31;20.20;99.90
30572;DHT22;17348;50.948;10.696;2023-06-10T07:26:33;20.30;99.90
30572;DHT22;17348;50.948;10.696;2023-06-10T07:29:36;20.40;99.90
30572;DHT22;17348;50.948;10.696;2023-06-10T07:32:39;20.60;99.90
30572;DHT22;17348;50.948;10.696;2023-06-10T07:35:41;20.70;99.90
30572;DHT22;17348;50.948;10.696;2023-06-10T07:38:44;21.30;99.90
30572;DHT22;17348;50.948;10.696;2023-06-10T07:41:46;21.30;99.90
30572;DHT22;17348;50.948;10.696;2023-06-10T07:44:51;21.40;99.90
30572;DHT22;17348;50.948;10.696;2023-06-10T07:47:53;21.50;99.90
30572;DHT22;17348;50.948;10.696;2023-06-10T07:50:56;21.50;99.90
30572;DHT22;17348;50.948;10.696;2023-06-10T07:53:59;21.50;99.90
30572;DHT22;17348;50.948;10.696;2023-06-10T07:57:01;21.50;99.90
30572;DHT22;17348;50.948;10.696;2023-06-10T08:00:06;21.40;99.90
30572;DHT22;17348;50.948;10.696;2023-06-10T08:03:09;21.30;99.90
30572;DHT22;17348;50.948;10.696;2023-06-10T08:06:11;21.20;99.90
30572;DHT22;17348;50.948;10.696;2023-06-10T08:09:13;21.20;99.90
30572;DHT22;17348;50.948;10.696;2023-06-10T08:12:16;21.20;99.90
30572;DHT22;17348;50.948;10.696;2023-06-10T08:15:20;21.30;99.90
30572;DHT22;17348;50.948;10.696;2023-06-10T08:18:22;21.40;99.90
30572;DHT22;17348;50.948;10.696;2023-06-10T08:21:24;21.50;99.90
30572;DHT22;17348;50.948;10.696;2023-06-10T08:24:29;21.50;99.90
30572;DHT22;17348;50.948;10.696;2023-06-10T08:27:32;21.50;99.90
30572;DHT22;17348;50.948;10.696;2023-06-10T08:30:35;21.50;99.90
30572;DHT22;17348;50.948;10.696;2023-06-10T08:33:38;21.60;99.90
30572;DHT22;17348;50.948;10.696;2023-06-10T08:36:40;21.70;99.90
30572;DHT22;17348;50.948;10.696;2023-06-10T08:39:42;21.70;99.90
30572;DHT22;17348;50.948;10.696;2023-06-10T08:42:49;21.80;99.90
30572;DHT22;17348;50.948;10.696;2023-06-10T08:45:57;21.90;99.90
30572;DHT22;17348;50.948;10.696;2023-06-10T08:49:03;21.90;99.90
30572;DHT22;17348;50.948;10.696;2023-06-10T08:52:08;22.00;99.90
30572;DHT22;17348;50.948;10.696;2023-06-10T08:55:15;22.10;99.90
30572;DHT22;17348;50.948;10.696;2023-06-10T08:58:20;22.20;99.90
30572;DHT22;17348;50.948;10.696;2023-06-10T09:01:26;22.30;99.90
30572;DHT22;17348;50.948;10.696;2023-06-10T09:04:28;22.40;99.90
30572;DHT22;17348;50.948;10.696;2023-06-10T09:07:31;22.50;99.90
30572;DHT22;17348;50.948;10.696;2023-06-10T09:10:35;22.60;99.90
30572;DHT22;17348;50.948;10.696;2023-06-10T09:13:37;22.70;99.90
30572;DHT22;17348;50.948;10.696;2023-06-10T09:16:42;22.70;99.90
30572;DHT22;17348;50.948;10.696;2023-06-10T09:19:44;22.70;99.90
30572;DHT22;17348;50.948;10.696;2023-06-10T09:22:48;22.80;99.90
30572;DHT22;17348;50.948;10.696;2023-06-10T09:25:56;22.70;99.90
30572;DHT22;17348;50.948;10.696;2023-06-10T09:29:03;22.80;99.90
30572;DHT22;17348;50.948;10.696;2023-06-10T09:32:08;22.90;99.90
30572;DHT22;17348;50.948;10.696;2023-06-10T09:35:10;23.00;99.90
30572;DHT22;17348;50.948;10.696;2023-06-10T09:38:14;23.20;99.90
30572;DHT22;17348;50.948;10.696;2023-06-10T09:41:16;23.40;99.90
30572;DHT22;17348;50.948;10.696;2023-06-10T09:44:20;23.70;99.90
30572;DHT22;17348;50.948;10.696;2023-06-10T09:47:24;24.00;99.90
30572;DHT22;17348;50.948;10.696;2023-06-10T09:50:26;24.10;99.90
30572;DHT22;17348;50.948;10.696;2023-06-10T09:53:33;24.30;99.90
30572;DHT22;17348;50.948;10.696;2023-06-10T09:56:36;24.40;99.90
30572;DHT22;17348;50.948;10.696;2023-06-10T09:59:38;24.60;99.90
30572;DHT22;17348;50.948;10.696;2023-06-10T10:02:46;24.70;99.90
30572;DHT22;17348;50.948;10.696;2023-06-10T10:05:49;24.80;99.90
30572;DHT22;17348;50.948;10.696;2023-06-10T10:08:51;24.90;99.90
30572;DHT22;17348;50.948;10.696;2023-06-10T10:11:54;24.90;99.90
30572;DHT22;17348;50.948;10.696;2023-06-10T10:14:57;25.00;99.90
30572;DHT22;17348;50.948;10.696;2023-06-10T10:18:06;25.20;99.90
30572;DHT22;17348;50.948;10.696;2023-06-10T10:21:13;25.30;99.90
30572;DHT22;17348;50.948;10.696;2023-06-10T10:24:17;25.30;99.90
30572;DHT22;17348;50.948;10.696;2023-06-10T10:27:27;25.30;99.90
30572;DHT22;17348;50.948;10.696;2023-06-10T10:30:30;25.40;99.90
30572;DHT22;17348;50.948;10.696;2023-06-10T10:33:46;25.40;99.90
30572;DHT22;17348;50.948;10.696;2023-06-10T10:36:51;25.40;99.90
30572;DHT22;17348;50.948;10.696;2023-06-10T10:39:54;25.60;99.90
30572;DHT22;17348;50.948;10.696;2023-06-10T10:42:56;25.70;99.90
30572;DHT22;17348;50.948;10.696;2023-06-10T10:46:01;25.80;99.90
30572;DHT22;17348;50.948;10.696;2023-06-10T10:49:06;25.90;99.90
30572;DHT22;17348;50.948;10.696;2023-06-10T10:52:11;25.80;99.90
30572;DHT22;17348;50.948;10.696;2023-06-10T10:55:14;25.90;99.90
30572;DHT22;17348;50.948;10.696;2023-06-10T10:58:16;25.90;99.90
30572;DHT22;17348;50.948;10.696;2023-06-10T11:01:40;25.80;99.90
30572;DHT22;17348;50.948;10.696;2023-06-10T11:04:46;25.90;99.90
30572;DHT22;17348;50.948;10.696;2023-06-10T11:07:53;25.90;99.90
30572;DHT22;17348;50.948;10.696;2023-06-10T11:10:56;26.00;99.90
30572;DHT22;17348;50.948;10.696;2023-06-10T11:14:04;26.10;99.90
30572;DHT22;17348;50.948;10.696;2023-06-10T11:17:17;26.10;99.90
30572;DHT22;17348;50.948;10.696;2023-06-10T11:20:55;26.30;99.90
30572;DHT22;17348;50.948;10.696;2023-06-10T11:23:58;26.40;99.90
30572;DHT22;17348;50.948;10.696;2023-06-10T11:27:16;26.50;99.90
30572;DHT22;17348;50.948;10.696;2023-06-10T11:30:25;26.60;99.90
30572;DHT22;17348;50.948;10.696;2023-06-10T11:33:28;26.70;99.90
30572;DHT22;17348;50.948;10.696;2023-06-10T11:36:33;27.00;99.90
30572;DHT22;17348;50.948;10.696;2023-06-10T11:39:36;26.90;99.90
30572;DHT22;17348;50.948;10.696;2023-06-10T11:42:39;26.80;99.90
30572;DHT22;17348;50.948;10.696;2023-06-10T11:45:42;26.60;99.90
30572;DHT22;17348;50.948;10.696;2023-06-10T11:48:49;26.50;99.90
30572;DHT22;17348;50.948;10.696;2023-06-10T11:51:53;26.50;99.90
30572;DHT22;17348;50.948;10.696;2023-06-10T11:54:55;26.60;99.90
30572;DHT22;17348;50.948;10.696;2023-06-10T11:57:58;26.60;99.90
30572;DHT22;17348;50.948;10.696;2023-06-10T12:01:00;26.80;99.90
30572;DHT22;17348;50.948;10.696;2023-06-10T12:04:05;27.00;99.90
30572;DHT22;17348;50.948;10.696;2023-06-10T12:07:09;27.10;99.90
30572;DHT22;17348;50.948;10.696;2023-06-10T12:10:18;27.20;99.90
30572;DHT22;17348;50.948;10.696;2023-06-10T12:13:21;27.00;99.90
30572;DHT22;17348;50.948;10.696;2023-06-10T12:16:24;26.90;99.90
30572;DHT22;17348;50.948;10.696;2023-06-10T12:19:27;26.70;99.90
30572;DHT22;17348;50.948;10.696;2023-06-10T12:22:37;26.60;99.90
30572;DHT22;17348;50.948;10.696;2023-06-10T12:25:43;26.60;99.90
30572;DHT22;17348;50.948;10.696;2023-06-10T12:28:50;26.60;99.90
30572;DHT22;17348;50.948;10.696;2023-06-10T12:31:54;26.30;99.90
30572;DHT22;17348;50.948;10.696;2023-06-10T12:35:03;26.50;99.90
30572;DHT22;17348;50.948;10.696;2023-06-10T12:38:07;26.60;99.90
30572;DHT22;17348;50.948;10.696;2023-06-10T12:41:12;26.70;99.90
30572;DHT22;17348;50.948;10.696;2023-06-10T12:44:14;26.70;99.90
30572;DHT22;17348;50.948;10.696;2023-06-10T12:47:17;26.70;99.90
30572;DHT22;17348;50.948;10.696;2023-06-10T12:50:19;26.90;99.90
30572;DHT22;17348;50.948;10.696;2023-06-10T12:53:24;26.90;99.90
30572;DHT22;17348;50.948;10.696;2023-06-10T12:56:27;26.80;99.90
30572;DHT22;17348;50.948;10.696;2023-06-10T12:59:29;26.60;99.90
30572;DHT22;17348;50.948;10.696;2023-06-10T13:02:33;26.60;99.90
30572;DHT22;17348;50.948;10.696;2023-06-10T13:05:35;26.60;99.90
30572;DHT22;17348;50.948;10.696;2023-06-10T13:08:41;26.60;99.90
30572;DHT22;17348;50.948;10.696;2023-06-10T13:11:43;26.80;99.90
30572;DHT22;17348;50.948;10.696;2023-06-10T13:14:45;27.00;99.90
30572;DHT22;17348;50.948;10.696;2023-06-10T13:17:48;27.10;99.90
30572;DHT22;17348;50.948;10.696;2023-06-10T13:20:51;26.90;99.90
30572;DHT22;17348;50.948;10.696;2023-06-10T13:23:58;26.80;99.90
30572;DHT22;17348;50.948;10.696;2023-06-10T13:27:00;26.80;99.90
30572;DHT22;17348;50.948;10.696;2023-06-10T13:30:05;27.00;99.90
30572;DHT22;17348;50.948;10.696;2023-06-10T13:33:08;27.10;99.90
30572;DHT22;17348;50.948;10.696;2023-06-10T13:36:10;27.20;99.90
30572;DHT22;17348;50.948;10.696;2023-06-10T13:39:14;27.20;99.90
30572;DHT22;17348;50.948;10.696;2023-06-10T13:42:17;27.30;99.90
30572;DHT22;17348;50.948;10.696;2023-06-10T13:45:19;27.40;99.90
30572;DHT22;17348;50.948;10.696;2023-06-10T13:48:21;27.50;99.90
30572;DHT22;17348;50.948;10.696;2023-06-10T13:51:26;27.60;99.90
30572;DHT22;17348;50.948;10.696;2023-06-10T13:54:30;27.60;99.90
30572;DHT22;17348;50.948;10.696;2023-06-10T13:57:32;27.50;99.90
30572;DHT22;17348;50.948;10.696;2023-06-10T14:00:35;27.50;99.90
30572;DHT22;17348;50.948;10.696;2023-06-10T14:03:37;27.60;99.90
30572;DHT22;17348;50.948;10.696;2023-06-10T14:06:39;27.70;99.90
30572;DHT22;17348;50.948;10.696;2023-06-10T14:09:46;27.90;99.90
30572;DHT22;17348;50.948;10.696;2023-06-10T14:12:48;27.70;99.90
30572;DHT22;17348;50.948;10.696;2023-06-10T14:15:51;27.70;99.90
30572;DHT22;17348;50.948;10.696;2023-06-10T14:18:53;27.70;99.90
30572;DHT22;17348;50.948;10.696;2023-06-10T14:21:56;27.80;99.90
30572;DHT22;17348;50.948;10.696;2023-06-10T14:25:00;27.90;99.90
30572;DHT22;17348;50.948;10.696;2023-06-10T14:28:02;28.00;99.90
30572;DHT22;17348;50.948;10.696;2023-06-10T14:31:04;28.10;99.90
30572;DHT22;17348;50.948;10.696;2023-06-10T14:34:08;28.10;99.90
30572;DHT22;17348;50.948;10.696;2023-06-10T14:37:10;28.00;99.80
30572;DHT22;17348;50.948;10.696;2023-06-10T14:40:14;27.90;99.70
30572;DHT22;17348;50.948;10.696;2023-06-10T14:43:16;27.90;99.70
30572;DHT22;17348;50.948;10.696;2023-06-10T14:46:19;27.90;99.90
30572;DHT22;17348;50.948;10.696;2023-06-10T14:49:22;27.80;99.90
30572;DHT22;17348;50.948;10.696;2023-06-10T14:52:24;27.90;99.40
30572;DHT22;17348;50.948;10.696;2023-06-10T14:55:28;28.00;98.90
30572;DHT22;17348;50.948;10.696;2023-06-10T14:58:30;27.80;98.20
30572;DHT22;17348;50.948;10.696;2023-06-10T15:01:33;27.90;97.80
30572;DHT22;17348;50.948;10.696;2023-06-10T15:04:35;28.00;97.90
30572;DHT22;17348;50.948;10.696;2023-06-10T15:07:37;28.20;96.50
30572;DHT22;17348;50.948;10.696;2023-06-10T15:10:41;28.10;95.60
30572;DHT22;17348;50.948;10.696;2023-06-10T15:13:43;28.20;95.20
30572;DHT22;17348;50.948;10.696;2023-06-10T15:16:45;28.30;95.00
30572;DHT22;17348;50.948;10.696;2023-06-10T15:19:48;28.10;94.50
30572;DHT22;17348;50.948;10.696;2023-06-10T15:22:50;28.20;94.90
30572;DHT22;17348;50.948;10.696;2023-06-10T15:25:56;28.30;94.70
30572;DHT22;17348;50.948;10.696;2023-06-10T15:28:58;28.50;94.60
30572;DHT22;17348;50.948;10.696;2023-06-10T15:32:05;28.50;94.30
30572;DHT22;17348;50.948;10.696;2023-06-10T15:35:08;28.50;94.00
30572;DHT22;17348;50.948;10.696;2023-06-10T15:38:10;28.30;94.00
30572;DHT22;17348;50.948;10.696;2023-06-10T15:41:14;28.20;93.90
30572;DHT22;17348;50.948;10.696;2023-06-10T15:44:16;28.00;93.60
30572;DHT22;17348;50.948;10.696;2023-06-10T15:47:19;28.00;93.70
30572;DHT22;17348;50.948;10.696;2023-06-10T15:50:21;28.00;94.30
30572;DHT22;17348;50.948;10.696;2023-06-10T15:53:23;27.80;96.40
30572;DHT22;17348;50.948;10.696;2023-06-10T15:56:27;27.50;97.20
30572;DHT22;17348;50.948;10.696;2023-06-10T15:59:29;27.50;97.70
30572;DHT22;17348;50.948;10.696;2023-06-10T16:02:32;27.40;98.00
30572;DHT22;17348;50.948;10.696;2023-06-10T16:05:34;27.30;98.20
30572;DHT22;17348;50.948;10.696;2023-06-10T16:08:36;27.20;97.60
30572;DHT22;17348;50.948;10.696;2023-06-10T16:11:40;27.10;97.40
30572;DHT22;17348;50.948;10.696;2023-06-10T16:14:43;27.10;97.80
30572;DHT22;17348;50.948;10.696;2023-06-10T16:17:45;27.00;97.20
30572;DHT22;17348;50.948;10.696;2023-06-10T16:20:47;27.00;96.90
30572;DHT22;17348;50.948;10.696;2023-06-10T16:23:50;26.90;96.70
30572;DHT22;17348;50.948;10.696;2023-06-10T16:26:53;26.90;97.00
30572;DHT22;17348;50.948;10.696;2023-06-10T16:29:56;26.90;96.90
30572;DHT22;17348;50.948;10.696;2023-06-10T16:32:58;26.90;96.90
30572;DHT22;17348;50.948;10.696;2023-06-10T16:36:01;27.00;96.40
30572;DHT22;17348;50.948;10.696;2023-06-10T16:39:03;26.90;96.40
30572;DHT22;17348;50.948;10.696;2023-06-10T16:42:07;26.90;96.10
30572;DHT22;17348;50.948;10.696;2023-06-10T16:45:10;26.90;95.20
30572;DHT22;17348;50.948;10.696;2023-06-10T16:48:12;26.70;95.20
30572;DHT22;17348;50.948;10.696;2023-06-10T16:51:15;26.60;95.30
30572;DHT22;17348;50.948;10.696;2023-06-10T16:54:17;26.60;95.40
30572;DHT22;17348;50.948;10.696;2023-06-10T16:57:21;26.60;95.80
30572;DHT22;17348;50.948;10.696;2023-06-10T17:00:23;26.40;95.70
30572;DHT22;17348;50.948;10.696;2023-06-10T17:03:26;26.40;95.90
30572;DHT22;17348;50.948;10.696;2023-06-10T17:06:28;26.40;95.90
30572;DHT22;17348;50.948;10.696;2023-06-10T17:09:30;26.40;96.30
30572;DHT22;17348;50.948;10.696;2023-06-10T17:12:34;26.40;96.50
30572;DHT22;17348;50.948;10.696;2023-06-10T17:15:36;26.40;97.70
30572;DHT22;17348;50.948;10.696;2023-06-10T17:18:39;26.10;98.90
30572;DHT22;17348;50.948;10.696;2023-06-10T17:21:41;25.90;99.90
30572;DHT22;17348;50.948;10.696;2023-06-10T17:24:43;25.70;99.60
30572;DHT22;17348;50.948;10.696;2023-06-10T17:27:47;25.50;99.60
30572;DHT22;17348;50.948;10.696;2023-06-10T17:30:50;25.40;99.80
30572;DHT22;17348;50.948;10.696;2023-06-10T17:33:52;25.30;99.90
30572;DHT22;17348;50.948;10.696;2023-06-10T17:36:55;25.20;99.90
30572;DHT22;17348;50.948;10.696;2023-06-10T17:39:57;25.10;99.90
30572;DHT22;17348;50.948;10.696;2023-06-10T17:43:01;25.00;99.90
30572;DHT22;17348;50.948;10.696;2023-06-10T17:46:03;24.80;99.90
30572;DHT22;17348;50.948;10.696;2023-06-10T17:49:05;24.70;99.90
30572;DHT22;17348;50.948;10.696;2023-06-10T17:52:08;24.60;99.90
30572;DHT22;17348;50.948;10.696;2023-06-10T17:55:10;24.50;99.90
30572;DHT22;17348;50.948;10.696;2023-06-10T17:58:14;24.40;99.90
30572;DHT22;17348;50.948;10.696;2023-06-10T18:01:16;24.40;99.90
30572;DHT22;17348;50.948;10.696;2023-06-10T18:04:19;24.40;99.90
30572;DHT22;17348;50.948;10.696;2023-06-10T18:07:21;24.30;99.90
30572;DHT22;17348;50.948;10.696;2023-06-10T18:10:23;24.30;99.90
30572;DHT22;17348;50.948;10.696;2023-06-10T18:13:27;24.30;99.90
30572;DHT22;17348;50.948;10.696;2023-06-10T18:16:29;24.30;99.90
30572;DHT22;17348;50.948;10.696;2023-06-10T18:19:31;24.10;99.90
30572;DHT22;17348;50.948;10.696;2023-06-10T18:22:34;24.00;99.90
30572;DHT22;17348;50.948;10.696;2023-06-10T18:25:36;23.90;99.90
30572;DHT22;17348;50.948;10.696;2023-06-10T18:28:40;23.70;99.90
30572;DHT22;17348;50.948;10.696;2023-06-10T18:31:42;23.60;99.90
30572;DHT22;17348;50.948;10.696;2023-06-10T18:34:45;23.50;99.90
30572;DHT22;17348;50.948;10.696;2023-06-10T18:37:47;23.40;99.90
30572;DHT22;17348;50.948;10.696;2023-06-10T18:40:49;23.30;99.90
30572;DHT22;17348;50.948;10.696;2023-06-10T18:43:54;23.20;99.90
30572;DHT22;17348;50.948;10.696;2023-06-10T18:47:00;23.10;99.90
30572;DHT22;17348;50.948;10.696;2023-06-10T18:50:03;23.00;99.90
30572;DHT22;17348;50.948;10.696;2023-06-10T18:53:06;22.90;99.90
30572;DHT22;17348;50.948;10.696;2023-06-10T18:56:08;22.80;99.90
30572;DHT22;17348;50.948;10.696;2023-06-10T18:59:14;22.70;99.90